Time;durP1;ratioP1;P1;durP2;ratioP2;P2;SDS_P1;SDS_P2;PMS_P1;PMS_P2;Temp;Humidity;BMP_temperature;BMP_pressure;BME280_temperature;BME280_humidity;BME280_pressure;Samples;Min_cycle;Max_cycle;Signal;HPM_P1;HPM_P2
2022/03/12 00:00:27;;;;;;;14.67;11.17;;;;;;;2.70;39.63;102125.19;5014333;28;20461;-48
2022/03/12 00:02:54;;;;;;;11.43;10.33;;;;;;;2.66;39.66;102121.06;5014618;28;20481;-45
2022/03/12 00:05:23;;;;;;;12.80;10.90;;;;;;;2.62;39.70;102124.06;5014587;28;20432;-45
2022/03/12 00:07:51;;;;;;;12.93;10.57;;;;;;;2.60;39.61;102129.44;5013817;28;20472;-45
2022/03/12 00:10:21;;;;;;;12.00;10.40;;;;;;;2.61;39.51;102132.91;5014271;28;20847;-47
2022/03/12 00:12:50;;;;;;;11.73;10.10;;;;;;;2.55;39.84;102131.56;5014233;28;20507;-44
2022/03/12 00:15:19;;;;;;;11.73;10.63;;;;;;;2.55;40.03;102130.72;5014481;28;20424;-44
2022/03/12 00:17:46;;;;;;;15.30;9.80;;;;;;;2.54;40.25;102135.13;5013715;28;20873;-44
2022/03/12 00:20:16;;;;;;;12.13;10.90;;;;;;;2.56;40.01;102121.88;5014159;28;20551;-44
2022/03/12 00:22:47;;;;;;;11.57;10.47;;;;;;;2.56;40.07;102122.72;5014036;28;20519;-45
2022/03/12 00:25:18;;;;;;;12.40;10.90;;;;;;;2.55;39.62;102131.56;5013951;28;20420;-45
2022/03/12 00:27:46;;;;;;;13.10;10.40;;;;;;;2.53;39.84;102133.47;5013280;28;20471;-45
2022/03/12 00:30:18;;;;;;;13.73;10.97;;;;;;;2.52;39.73;102131.78;5013866;28;20465;-44
2022/03/12 00:32:48;;;;;;;13.37;10.80;;;;;;;2.51;39.95;102126.66;5013902;28;20964;-44
2022/03/12 00:35:16;;;;;;;12.20;11.07;;;;;;;2.47;40.19;102128.66;5013941;28;20453;-45
2022/03/12 00:37:44;;;;;;;11.90;10.40;;;;;;;2.46;39.85;102132.22;5013186;28;20469;-46
2022/03/12 00:40:14;;;;;;;11.40;10.23;;;;;;;2.42;40.49;102114.16;5013746;28;20460;-45
2022/03/12 00:42:42;;;;;;;12.17;11.03;;;;;;;2.39;40.33;102125.72;5013621;28;20992;-45
2022/03/12 00:45:10;;;;;;;13.50;10.57;;;;;;;2.36;40.39;102125.94;5013809;28;20877;-45
2022/03/12 00:47:38;;;;;;;11.37;10.30;;;;;;;2.33;40.76;102123.50;5012829;28;20495;-45
2022/03/12 00:50:08;;;;;;;14.30;11.33;;;;;;;2.28;40.43;102115.13;5013564;28;20535;-45
2022/03/12 00:52:36;;;;;;;12.47;11.17;;;;;;;2.25;40.27;102112.69;5013800;28;20429;-47
2022/03/12 00:55:04;;;;;;;11.73;10.53;;;;;;;2.26;40.46;102118.81;5013306;28;20440;-44
2022/03/12 00:57:32;;;;;;;15.43;10.90;;;;;;;2.21;40.89;102127.06;5012892;28;20439;-46
2022/03/12 00:59:59;;;;;;;12.10;10.90;;;;;;;2.19;40.65;102129.78;5013202;28;20453;-48
2022/03/12 01:02:27;;;;;;;11.87;9.90;;;;;;;2.18;40.97;102119.38;5013037;28;20437;-45
2022/03/12 01:04:55;;;;;;;11.20;10.30;;;;;;;2.17;41.09;102122.94;5013107;28;20523;-46
2022/03/12 01:07:24;;;;;;;16.23;11.47;;;;;;;2.17;40.61;102115.06;5012585;28;20430;-45
2022/03/12 01:09:53;;;;;;;11.53;10.50;;;;;;;2.14;40.85;102121.38;5013161;28;20456;-49
2022/03/12 01:12:21;;;;;;;11.93;10.83;;;;;;;2.14;41.10;102120.53;5013058;28;20433;-45
2022/03/12 01:14:48;;;;;;;14.13;10.63;;;;;;;2.15;41.35;102111.69;5013194;28;20858;-46
2022/03/12 01:17:16;;;;;;;12.67;10.70;;;;;;;2.12;40.79;102110.09;5012187;28;20440;-46
2022/03/12 01:19:44;;;;;;;11.67;10.57;;;;;;;2.08;40.99;102113.06;5013038;28;20471;-47
2022/03/12 01:22:19;;;;;;;12.47;11.10;;;;;;;2.03;41.06;102107.31;5013033;28;20806;-45
2022/03/12 01:24:48;;;;;;;11.80;9.63;;;;;;;2.00;41.71;102110.97;5013045;28;20812;-45
2022/03/12 01:27:17;;;;;;;10.50;9.60;;;;;;;1.96;41.68;102106.88;5012775;28;20443;-45
2022/03/12 01:29:45;;;;;;;10.50;9.43;;;;;;;1.98;41.36;102109.41;5013141;28;20548;-45
2022/03/12 01:32:13;;;;;;;10.83;9.30;;;;;;;1.96;41.22;102117.41;5012679;28;20965;-47
2022/03/12 01:34:40;;;;;;;10.43;9.40;;;;;;;1.91;41.95;102106.34;5012860;28;20536;-49
2022/03/12 01:37:09;;;;;;;13.40;10.50;;;;;;;1.91;41.60;102102.91;5012482;28;20443;-47
2022/03/12 01:39:37;;;;;;;11.87;9.37;;;;;;;1.90;41.54;102102.06;5011929;28;20526;-47
2022/03/12 01:42:07;;;;;;;11.10;10.13;;;;;;;1.89;41.59;102099.53;5012900;28;20437;-48
2022/03/12 01:44:35;;;;;;;10.67;9.57;;;;;;;1.88;41.11;102080.25;5012328;28;20487;-48
2022/03/12 01:47:07;;;;;;;16.80;10.97;;;;;;;1.91;40.99;102090.56;5012425;28;20429;-48
2022/03/12 01:49:35;;;;;;;12.90;10.97;;;;;;;1.88;41.45;102090.78;5011919;28;20471;-45
2022/03/12 01:52:04;;;;;;;16.33;10.77;;;;;;;1.86;41.00;102089.22;5012562;28;20429;-47
2022/03/12 01:54:33;;;;;;;11.27;9.90;;;;;;;1.85;41.53;102077.84;5012556;28;20445;-45
2022/03/12 01:57:00;;;;;;;13.87;9.60;;;;;;;1.85;41.06;102072.59;5012305;28;20433;-49
2022/03/12 01:59:29;;;;;;;11.63;9.80;;;;;;;1.88;40.63;102080.25;5011738;28;20583;-45
2022/03/12 02:01:57;;;;;;;11.90;10.70;;;;;;;1.87;41.31;102083.00;5012611;28;20509;-45
2022/03/12 02:04:29;;;;;;;10.13;9.17;;;;;;;1.84;41.08;102080.59;5012228;28;20508;-46
2022/03/12 02:06:59;;;;;;;11.23;10.10;;;;;;;1.82;41.75;102082.50;5012415;28;20472;-44
2022/03/12 02:09:27;;;;;;;11.23;9.50;;;;;;;1.79;41.62;102080.09;5008035;28;20491;-45
2022/03/12 02:11:54;;;;;;;14.30;10.67;;;;;;;1.77;41.70;102085.44;5010074;28;20540;-48
2022/03/12 02:14:24;;;;;;;11.20;10.10;;;;;;;1.78;41.07;102081.03;5009492;28;20532;-45
2022/03/12 02:16:55;;;;;;;10.97;9.87;;;;;;;1.77;41.41;102081.97;5012505;28;20437;-45
2022/03/12 02:19:25;;;;;;;11.70;10.50;;;;;;;1.76;41.60;102078.53;5011414;28;20480;-47
2022/03/12 02:21:54;;;;;;;11.13;10.10;;;;;;;1.76;41.33;102072.41;5012203;28;20457;-46
2022/03/12 02:24:25;;;;;;;11.90;10.80;;;;;;;1.71;41.54;102067.47;5011954;28;21032;-45
2022/03/12 02:26:55;;;;;;;14.00;10.10;;;;;;;1.68;41.34;102070.31;5012362;28;20433;-46
2022/03/12 02:29:24;;;;;;;11.50;10.30;;;;;;;1.66;41.88;102065.16;5011084;28;20472;-47
2022/03/12 02:31:56;;;;;;;11.13;9.87;;;;;;;1.66;41.22;102066.94;5012402;28;20439;-47
2022/03/12 02:34:30;;;;;;;14.00;10.43;;;;;;;1.64;41.55;102064.41;5012009;28;20532;-46
2022/03/12 02:36:58;;;;;;;15.63;9.93;;;;;;;1.62;41.85;102062.84;5012198;28;20531;-44
2022/03/12 02:39:27;;;;;;;10.43;9.43;;;;;;;1.59;41.97;102061.28;5011227;28;20483;-45
2022/03/12 02:41:56;;;;;;;10.73;9.37;;;;;;;1.57;41.49;102062.31;5019983;28;20963;-45
2022/03/12 02:44:27;;;;;;;10.67;9.60;;;;;;;1.54;41.67;102063.38;5020474;28;20471;-46
2022/03/12 02:47:13;;;;;;;12.40;11.20;;;;;;;1.50;41.49;102056.66;5031492;28;20436;-45
2022/03/12 02:49:46;;;;;;;10.83;9.70;;;;;;;1.51;41.63;102054.88;5031397;28;20539;-45
2022/03/12 02:52:14;;;;;;;14.13;10.43;;;;;;;1.50;41.79;102055.81;5031569;28;20434;-46
2022/03/12 02:54:44;;;;;;;10.23;9.33;;;;;;;1.46;41.69;102055.19;5031491;28;20921;-45
2022/03/12 02:57:13;;;;;;;11.50;10.30;;;;;;;1.42;41.81;102052.88;5031218;28;20428;-46
2022/03/12 02:59:43;;;;;;;12.93;11.20;;;;;;;1.43;42.02;102052.78;5031031;28;20440;-45
2022/03/12 03:02:12;;;;;;;14.80;10.30;;;;;;;1.40;41.57;102045.09;5031595;28;20436;-45
2022/03/12 03:04:41;;;;;;;10.90;9.83;;;;;;;1.40;41.29;102045.09;5031398;28;20480;-46
2022/03/12 03:07:10;;;;;;;11.23;10.00;;;;;;;1.42;42.16;102043.22;5031300;28;20569;-45
2022/03/12 03:09:39;;;;;;;12.47;10.40;;;;;;;1.42;42.12;102040.56;5030797;28;20464;-45
2022/03/12 03:12:10;;;;;;;11.57;10.57;;;;;;;1.41;41.62;102044.13;5031394;28;20440;-45
2022/03/12 03:14:46;;;;;;;11.13;10.13;;;;;;;1.41;42.13;102035.41;5031580;28;20971;-48
2022/03/12 03:17:14;;;;;;;12.73;10.53;;;;;;;1.40;41.38;102039.84;5031435;28;20439;-46
2022/03/12 03:19:42;;;;;;;11.03;9.90;;;;;;;1.36;42.34;102046.25;5031143;28;20987;-47
2022/03/12 03:22:13;;;;;;;11.50;9.90;;;;;;;1.33;41.88;102038.59;5031237;28;20447;-47
2022/03/12 03:24:40;;;;;;;11.60;10.17;;;;;;;1.32;41.86;102057.91;5031655;28;20484;-45
2022/03/12 03:27:10;;;;;;;11.87;10.67;;;;;;;1.28;41.65;102045.94;5034809;28;20436;-45
2022/03/12 03:29:37;;;;;;;11.87;10.67;;;;;;;1.27;42.48;102041.63;5034200;28;20468;-48
2022/03/12 03:32:06;;;;;;;10.50;9.50;;;;;;;1.26;41.91;102042.56;5034785;28;20431;-47
2022/03/12 03:34:34;;;;;;;12.70;10.30;;;;;;;1.25;41.50;102046.16;5034830;28;20435;-46
2022/03/12 03:37:02;;;;;;;11.43;10.17;;;;;;;1.25;41.64;102037.44;5034651;28;20436;-45
2022/03/12 03:39:30;;;;;;;13.37;9.40;;;;;;;1.24;41.39;102035.75;5033910;28;20462;-49
2022/03/12 03:41:58;;;;;;;11.63;10.43;;;;;;;1.22;41.93;102040.25;5034799;28;20446;-46
2022/03/12 03:44:30;;;;;;;11.67;9.97;;;;;;;1.19;41.61;102041.31;5029582;28;20559;-47
2022/03/12 03:46:57;;;;;;;11.10;10.20;;;;;;;1.20;41.52;102042.97;5014720;28;20516;-47
2022/03/12 03:49:25;;;;;;;12.40;10.20;;;;;;;1.16;42.16;102038.06;5013911;28;20830;-46
2022/03/12 03:51:56;;;;;;;10.90;9.80;;;;;;;1.15;41.55;102024.06;5014912;28;20799;-47
2022/03/12 03:54:23;;;;;;;10.97;9.87;;;;;;;1.16;41.42;102032.81;5014932;28;21038;-45
2022/03/12 03:56:51;;;;;;;10.40;9.13;;;;;;;1.15;41.39;102034.59;5014756;28;20465;-46
2022/03/12 03:59:19;;;;;;;10.00;9.00;;;;;;;1.15;41.93;102037.22;5013796;28;20480;-48
2022/03/12 04:01:50;;;;;;;11.13;10.33;;;;;;;1.16;41.67;102045.94;5014583;28;20516;-47
2022/03/12 04:04:18;;;;;;;10.70;9.60;;;;;;;1.15;42.08;102033.75;5014658;28;20451;-46
2022/03/12 04:06:45;;;;;;;10.67;9.67;;;;;;;1.10;41.67;102034.91;5014576;28;20441;-47
2022/03/12 04:09:13;;;;;;;11.37;10.20;;;;;;;1.10;41.94;102057.72;5013707;28;20473;-48
2022/03/12 04:11:43;;;;;;;10.20;9.30;;;;;;;1.10;41.85;102060.34;5014424;28;20437;-46
2022/03/12 04:14:11;;;;;;;11.27;10.17;;;;;;;1.07;42.08;102057.91;5014303;28;21038;-48
2022/03/12 04:16:38;;;;;;;10.10;9.30;;;;;;;1.04;41.39;102048.47;5014116;28;20520;-48
2022/03/12 04:19:08;;;;;;;12.37;11.17;;;;;;;1.00;42.18;102051.38;5013689;28;20473;-46
2022/03/12 04:21:35;;;;;;;13.00;10.17;;;;;;;0.97;41.95;102043.72;5014367;28;20428;-47
2022/03/12 04:24:05;;;;;;;11.43;10.37;;;;;;;0.96;41.90;102042.88;5014295;28;20424;-45
2022/03/12 04:26:35;;;;;;;11.30;10.37;;;;;;;0.98;41.60;102040.16;5014195;28;20530;-46
2022/03/12 04:29:04;;;;;;;13.30;9.47;;;;;;;0.95;41.51;102038.56;5012990;28;20469;-47
2022/03/12 04:31:32;;;;;;;11.27;9.60;;;;;;;0.94;42.28;102046.53;5014250;28;20476;-46
2022/03/12 04:34:00;;;;;;;10.47;9.30;;;;;;;0.92;41.51;102044.03;5014181;28;20536;-46
2022/03/12 04:36:29;;;;;;;9.73;8.90;;;;;;;0.92;41.90;102045.81;5013089;28;20425;-47
2022/03/12 04:38:56;;;;;;;12.13;10.63;;;;;;;0.93;41.75;102052.72;5013152;28;20479;-46
2022/03/12 04:41:24;;;;;;;9.93;9.13;;;;;;;0.91;41.65;102059.88;5013797;28;20433;-48
2022/03/12 04:43:52;;;;;;;11.33;10.20;;;;;;;0.89;41.87;102057.38;5014046;28;20810;-44
2022/03/12 04:46:20;;;;;;;10.20;9.30;;;;;;;0.88;41.24;102062.72;5013511;28;20472;-45
2022/03/12 04:48:48;;;;;;;12.13;9.60;;;;;;;0.88;41.62;102060.09;4993327;28;20469;-45
2022/03/12 04:51:16;;;;;;;11.40;10.17;;;;;;;0.86;41.32;102062.81;4994199;28;20444;-45
2022/03/12 04:53:45;;;;;;;11.57;9.80;;;;;;;0.83;41.69;102059.56;4994126;28;20444;-48
2022/03/12 04:56:13;;;;;;;11.57;10.37;;;;;;;0.80;41.40;102065.84;4994023;28;20434;-46
2022/03/12 04:58:41;;;;;;;12.23;9.70;;;;;;;0.78;41.42;102067.72;4993431;28;20466;-44
2022/03/12 05:01:08;;;;;;;12.10;10.17;;;;;;;0.74;41.53;102068.03;4993862;28;20430;-44
2022/03/12 05:03:42;;;;;;;11.00;10.00;;;;;;;0.71;41.76;102068.25;4994502;28;20474;-46
2022/03/12 05:06:13;;;;;;;11.53;10.30;;;;;;;0.68;41.76;102065.81;4993625;28;20473;-45
2022/03/12 05:08:41;;;;;;;11.17;9.53;;;;;;;0.66;41.87;102065.09;4993183;28;20470;-47
2022/03/12 05:11:10;;;;;;;11.57;10.53;;;;;;;0.64;41.97;102064.31;4994020;28;20795;-45
2022/03/12 05:13:38;;;;;;;9.73;8.67;;;;;;;0.64;41.73;102059.06;4993884;28;21083;-44
2022/03/12 05:16:08;;;;;;;11.57;10.40;;;;;;;0.62;42.32;102055.72;4993724;28;20448;-46
2022/03/12 05:18:38;;;;;;;11.70;9.00;;;;;;;0.60;41.80;102047.94;4992764;28;20472;-46
2022/03/12 05:21:07;;;;;;;10.17;9.17;;;;;;;0.61;42.06;102047.00;4993411;28;20430;-45
2022/03/12 05:23:34;;;;;;;11.23;10.20;;;;;;;0.61;41.90;102048.78;4993723;28;20437;-44
2022/03/12 05:26:02;;;;;;;9.70;9.00;;;;;;;0.63;42.18;102052.16;4993764;28;20480;-47
2022/03/12 05:28:32;;;;;;;12.23;10.83;;;;;;;0.64;41.97;102056.44;4992725;28;20462;-45
2022/03/12 05:31:04;;;;;;;10.77;9.77;;;;;;;0.65;41.60;102059.00;4993598;28;20500;-47
2022/03/12 05:33:33;;;;;;;10.03;9.13;;;;;;;0.65;41.72;102068.66;4993259;28;20471;-45
2022/03/12 05:36:01;;;;;;;10.10;9.20;;;;;;;0.61;41.96;102068.00;4993429;28;20439;-48
2022/03/12 05:38:31;;;;;;;11.70;9.77;;;;;;;0.60;42.19;102084.69;4992652;28;20476;-48
2022/03/12 05:40:59;;;;;;;11.37;10.17;;;;;;;0.60;41.70;102081.25;4993343;28;20458;-45
2022/03/12 05:43:30;;;;;;;11.00;10.00;;;;;;;0.58;42.33;102068.19;4993456;28;20484;-47
2022/03/12 05:46:00;;;;;;;10.80;9.77;;;;;;;0.57;42.15;102084.06;5010424;28;20487;-44
2022/03/12 05:48:28;;;;;;;9.70;8.80;;;;;;;0.54;41.97;102080.66;5011854;28;20471;-44
2022/03/12 05:50:57;;;;;;;10.03;9.00;;;;;;;0.52;42.55;102086.97;5012850;28;20548;-44
2022/03/12 05:53:26;;;;;;;9.77;8.80;;;;;;;0.51;42.70;102085.28;5012856;28;20444;-44
2022/03/12 05:55:54;;;;;;;11.37;9.27;;;;;;;0.49;42.78;102089.78;5012679;28;20429;-46
2022/03/12 05:58:23;;;;;;;10.33;9.03;;;;;;;0.48;42.88;102088.94;5011698;28;20559;-48
2022/03/12 06:00:54;;;;;;;10.87;8.70;;;;;;;0.48;42.81;102091.56;5012534;28;20456;-45
2022/03/12 06:03:24;;;;;;;9.30;8.50;;;;;;;0.48;42.25;102085.47;5012571;28;20441;-44
2022/03/12 06:05:56;;;;;;;11.23;10.27;;;;;;;0.49;42.90;102087.16;5012341;28;20472;-44
2022/03/12 06:08:24;;;;;;;10.80;9.70;;;;;;;0.50;42.37;102087.09;5011871;28;20468;-47
2022/03/12 06:10:55;;;;;;;10.03;9.23;;;;;;;0.55;42.48;102089.41;5012287;28;20503;-45
2022/03/12 06:13:23;;;;;;;10.57;9.60;;;;;;;1.21;42.68;102094.59;5012258;28;20437;-46
2022/03/12 06:15:55;;;;;;;11.00;9.90;;;;;;;1.95;40.49;102104.34;5012440;28;20429;-45
2022/03/12 06:18:25;;;;;;;12.13;10.23;;;;;;;2.62;39.09;102105.63;5011459;28;20468;-48
2022/03/12 06:20:52;;;;;;;11.00;10.00;;;;;;;3.26;38.38;102099.03;5012095;28;20453;-47
2022/03/12 06:23:20;;;;;;;11.13;10.03;;;;;;;3.85;36.07;102102.34;5012185;28;20437;-46
2022/03/12 06:25:48;;;;;;;11.40;9.80;;;;;;;4.25;35.60;102098.22;5011843;28;20477;-47
2022/03/12 06:28:16;;;;;;;11.30;10.30;;;;;;;4.53;36.00;102102.13;5011172;28;21080;-45
2022/03/12 06:30:43;;;;;;;11.13;8.73;;;;;;;4.94;34.89;102098.72;5011764;28;20461;-45
2022/03/12 06:33:11;;;;;;;11.17;9.47;;;;;;;5.09;34.68;102101.91;5011836;28;20445;-46
2022/03/12 06:35:40;;;;;;;11.10;10.10;;;;;;;5.34;33.98;102114.75;5011988;28;20521;-45
2022/03/12 06:38:10;;;;;;;11.47;10.40;;;;;;;5.65;34.39;102113.81;5011118;28;20459;-49
2022/03/12 06:40:37;;;;;;;10.73;9.73;;;;;;;5.86;33.42;102111.16;5012050;28;20469;-46
2022/03/12 06:43:11;;;;;;;11.53;10.33;;;;;;;5.88;31.94;102106.59;5012161;28;20433;-49
2022/03/12 06:45:39;;;;;;;10.77;9.70;;;;;;;6.10;33.12;102111.66;5011567;28;20437;-47
2022/03/12 06:48:07;;;;;;;10.90;9.63;;;;;;;6.14;32.86;102105.13;5011126;28;20551;-47
2022/03/12 06:50:34;;;;;;;12.23;11.13;;;;;;;6.32;31.70;102111.47;5011654;28;20453;-47
2022/03/12 06:53:03;;;;;;;12.53;11.23;;;;;;;6.37;30.90;102111.88;5011871;28;20440;-48
2022/03/12 06:55:33;;;;;;;12.17;10.60;;;;;;;6.37;31.67;102111.88;5011803;28;20473;-49
2022/03/12 06:58:00;;;;;;;12.63;10.67;;;;;;;6.17;31.08;102119.91;5011207;28;20467;-47
2022/03/12 07:00:32;;;;;;;10.30;9.23;;;;;;;5.85;31.52;102128.88;5013653;28;20449;-46
2022/03/12 07:03:01;;;;;;;11.63;9.23;;;;;;;5.76;31.29;102124.34;5015595;28;20437;-45
2022/03/12 07:05:29;;;;;;;10.93;9.97;;;;;;;5.75;32.83;102127.94;5015460;28;20444;-46
2022/03/12 07:07:57;;;;;;;11.27;10.17;;;;;;;5.57;31.88;102137.44;5014933;28;20841;-48
2022/03/12 07:10:26;;;;;;;11.93;10.73;;;;;;;5.13;32.60;102146.47;5015443;28;20547;-47
2022/03/12 07:12:54;;;;;;;10.90;10.00;;;;;;;5.02;33.10;102141.22;5015536;28;20776;-44
2022/03/12 07:15:22;;;;;;;11.40;10.40;;;;;;;4.74;33.24;102133.88;5015514;28;20524;-46
2022/03/12 07:17:50;;;;;;;11.90;10.23;;;;;;;4.52;33.94;102132.13;5014491;28;20465;-45
2022/03/12 07:20:19;;;;;;;11.73;10.53;;;;;;;4.20;33.36;102142.66;5015473;28;20543;-47
2022/03/12 07:22:47;;;;;;;10.50;9.60;;;;;;;4.01;33.60;102136.28;5015384;28;20802;-44
2022/03/12 07:25:17;;;;;;;13.70;10.10;;;;;;;4.00;34.17;102145.16;5015376;28;20433;-45
2022/03/12 07:27:46;;;;;;;11.33;10.07;;;;;;;3.91;34.47;102139.63;5014492;28;20825;-45
2022/03/12 07:30:16;;;;;;;10.63;9.73;;;;;;;3.92;34.37;102143.13;5015228;28;20464;-44
2022/03/12 07:32:45;;;;;;;10.40;9.47;;;;;;;4.04;34.93;102143.94;5015090;28;20487;-47
2022/03/12 07:35:15;;;;;;;12.53;9.60;;;;;;;4.12;34.35;102152.13;5015152;28;20425;-47
2022/03/12 07:37:45;;;;;;;11.30;9.80;;;;;;;4.39;34.29;102147.31;5014356;28;20464;-47
2022/03/12 07:40:15;;;;;;;11.40;10.30;;;;;;;4.68;33.69;102155.53;5015027;28;20448;-48
2022/03/12 07:42:43;;;;;;;12.33;9.87;;;;;;;4.80;33.31;102146.59;5014733;28;20443;-45
2022/03/12 07:45:13;;;;;;;10.87;9.87;;;;;;;4.95;33.76;102161.22;5014913;28;20432;-45
2022/03/12 07:47:41;;;;;;;10.83;9.70;;;;;;;5.25;32.72;102136.69;5014097;28;20478;-45
2022/03/12 07:50:10;;;;;;;10.63;9.67;;;;;;;5.45;33.58;102154.34;5014832;28;20459;-45
2022/03/12 07:52:38;;;;;;;11.40;10.30;;;;;;;5.51;33.00;102152.03;5014862;28;20803;-45
2022/03/12 07:55:08;;;;;;;10.43;9.33;;;;;;;5.45;32.03;102146.41;5014882;28;20433;-46
2022/03/12 07:57:37;;;;;;;9.53;8.53;;;;;;;5.44;32.68;102147.38;5013855;28;20457;-44
2022/03/12 08:00:06;;;;;;;12.83;10.20;;;;;;;5.44;33.15;102145.56;5013857;28;20544;-45
2022/03/12 08:02:35;;;;;;;11.47;10.27;;;;;;;5.49;32.80;102150.50;5014211;28;20799;-45
2022/03/12 08:05:03;;;;;;;10.70;9.13;;;;;;;5.42;33.08;102138.75;5014780;28;20433;-45
2022/03/12 08:07:32;;;;;;;13.10;9.07;;;;;;;5.37;32.11;102140.94;5013706;28;20477;-45
2022/03/12 08:09:59;;;;;;;10.20;9.33;;;;;;;5.40;32.74;102135.41;5014449;28;20452;-45
2022/03/12 08:12:31;;;;;;;11.70;9.37;;;;;;;5.45;32.66;102133.19;5013128;28;20528;-46
2022/03/12 08:14:59;;;;;;;10.90;9.37;;;;;;;5.55;33.60;102128.81;5014053;28;20440;-45
2022/03/12 08:17:26;;;;;;;10.03;9.13;;;;;;;5.59;33.48;102136.34;5028116;28;20443;-46
2022/03/12 08:19:55;;;;;;;10.57;9.50;;;;;;;5.60;32.36;102129.25;5033789;28;21048;-45
2022/03/12 08:22:23;;;;;;;10.40;9.40;;;;;;;5.66;33.66;102128.72;5033945;28;20435;-44
2022/03/12 08:24:51;;;;;;;10.80;9.80;;;;;;;5.74;33.85;102120.97;5034016;28;20420;-48
2022/03/12 08:27:19;;;;;;;10.70;9.60;;;;;;;5.91;33.12;102128.31;5032268;28;20503;-47
2022/03/12 08:29:50;;;;;;;10.90;8.83;;;;;;;6.07;32.18;102125.19;5007260;28;20559;-45
2022/03/12 08:32:17;;;;;;;9.20;8.30;;;;;;;6.30;31.89;102128.47;5033562;28;20552;-46
2022/03/12 08:34:45;;;;;;;9.63;8.80;;;;;;;6.41;31.07;102142.44;5033009;28;20847;-46
2022/03/12 08:37:15;;;;;;;9.60;8.67;;;;;;;6.75;34.15;102150.06;5033252;28;20526;-45
2022/03/12 08:39:43;;;;;;;11.47;10.20;;;;;;;6.74;30.65;102137.75;5033351;28;20552;-45
2022/03/12 08:42:11;;;;;;;9.73;8.77;;;;;;;6.93;30.77;102143.91;5033632;28;20432;-47
2022/03/12 08:44:39;;;;;;;10.70;9.60;;;;;;;7.24;30.56;102153.41;5026445;28;20429;-45
2022/03/12 08:47:08;;;;;;;12.73;10.67;;;;;;;7.27;31.20;102144.34;5013400;28;20472;-45
2022/03/12 08:49:36;;;;;;;10.97;9.40;;;;;;;7.33;30.74;102149.06;5013053;28;20496;-47
2022/03/12 08:52:05;;;;;;;11.53;10.33;;;;;;;7.39;30.02;102148.50;5011849;28;20453;-45
2022/03/12 08:54:34;;;;;;;10.03;8.83;;;;;;;7.37;29.26;102131.91;5010667;28;20516;-47
2022/03/12 08:57:02;;;;;;;11.80;9.00;;;;;;;7.46;29.47;102140.81;5012367;28;20949;-47
2022/03/12 08:59:29;;;;;;;12.23;9.10;;;;;;;7.27;30.18;102140.84;5026235;28;20539;-46
2022/03/12 09:01:57;;;;;;;10.77;9.53;;;;;;;7.14;30.04;102146.41;5032660;28;20805;-46
2022/03/12 09:04:25;;;;;;;9.23;8.40;;;;;;;7.04;30.30;102145.59;5014266;28;20448;-45
2022/03/12 09:06:53;;;;;;;9.03;8.00;;;;;;;6.84;30.05;102139.44;5012859;28;20441;-46
2022/03/12 09:09:21;;;;;;;9.50;8.60;;;;;;;6.83;30.28;102153.69;5012097;28;20815;-45
2022/03/12 09:11:50;;;;;;;8.63;7.93;;;;;;;6.69;30.87;102149.59;5012804;28;20444;-45
2022/03/12 09:14:18;;;;;;;9.40;8.57;;;;;;;6.74;30.15;102153.66;5011627;28;20943;-46
2022/03/12 09:16:46;;;;;;;10.17;9.17;;;;;;;6.78;31.40;102155.91;5012247;28;20433;-46
2022/03/12 09:19:13;;;;;;;9.90;9.00;;;;;;;6.84;30.67;102151.88;5011989;28;20460;-49
2022/03/12 09:21:41;;;;;;;11.40;10.30;;;;;;;6.96;30.86;102151.59;5012500;28;20436;-45
2022/03/12 09:24:11;;;;;;;13.83;12.43;;;;;;;6.87;30.15;102143.66;5010281;28;20528;-47
2022/03/12 09:26:39;;;;;;;13.63;10.50;;;;;;;7.06;30.86;102149.78;5013173;28;20510;-45
2022/03/12 09:29:08;;;;;;;15.03;11.53;;;;;;;7.37;30.78;102144.31;5030639;28;20511;-48
2022/03/12 09:31:36;;;;;;;14.07;11.13;;;;;;;7.55;30.37;102145.28;5032512;28;20446;-47
2022/03/12 09:34:06;;;;;;;11.77;10.50;;;;;;;7.69;29.25;102147.47;5015793;28;20437;-45
2022/03/12 09:36:35;;;;;;;12.10;10.90;;;;;;;7.72;29.62;102136.56;5012219;28;20851;-47
2022/03/12 09:39:04;;;;;;;11.93;10.90;;;;;;;7.76;29.41;102145.94;5011322;28;20532;-49
2022/03/12 09:41:33;;;;;;;11.13;10.07;;;;;;;7.93;29.19;102141.66;5011689;28;21125;-45
2022/03/12 09:44:01;;;;;;;11.40;10.37;;;;;;;8.10;29.72;102138.25;5011197;28;20437;-46
2022/03/12 09:46:30;;;;;;;11.23;10.10;;;;;;;8.32;28.84;102132.59;5011615;28;20650;-46
2022/03/12 09:48:58;;;;;;;13.63;10.47;;;;;;;8.58;29.94;102138.84;5011375;28;20477;-45
2022/03/12 09:51:28;;;;;;;11.10;10.03;;;;;;;8.67;28.39;102137.97;5012430;28;20444;-47
2022/03/12 09:53:56;;;;;;;10.50;9.40;;;;;;;8.84;27.72;102139.78;5010949;28;20447;-49
2022/03/12 09:56:24;;;;;;;11.97;10.87;;;;;;;9.07;28.32;102137.53;5011355;28;20433;-46
2022/03/12 09:58:53;;;;;;;12.17;10.30;;;;;;;9.23;28.65;102128.81;5011313;28;20425;-45
2022/03/12 10:01:21;;;;;;;11.07;9.57;;;;;;;9.36;28.32;102123.94;5011692;28;20464;-45
2022/03/12 10:03:51;;;;;;;12.83;11.40;;;;;;;9.56;27.76;102117.41;5009687;28;20437;-47
2022/03/12 10:06:18;;;;;;;11.57;9.80;;;;;;;9.51;27.12;102110.91;5011883;28;20437;-46
2022/03/12 10:08:46;;;;;;;10.83;9.93;;;;;;;9.66;27.64;102099.53;5011539;28;20476;-46
2022/03/12 10:11:14;;;;;;;11.20;10.00;;;;;;;9.65;28.04;102099.66;5011314;28;21012;-45
2022/03/12 10:13:42;;;;;;;11.67;10.20;;;;;;;9.62;27.94;102108.81;5010806;28;20524;-46
2022/03/12 10:16:10;;;;;;;10.83;9.73;;;;;;;9.61;27.80;102101.81;5011127;28;20441;-45
2022/03/12 10:18:38;;;;;;;11.57;10.43;;;;;;;9.47;27.87;102105.03;5011353;28;20922;-45
2022/03/12 10:21:06;;;;;;;12.00;10.43;;;;;;;9.62;28.16;102102.63;5011097;28;20468;-45
2022/03/12 10:23:35;;;;;;;11.57;10.37;;;;;;;9.58;27.93;102098.63;5010823;28;20433;-47
2022/03/12 10:26:03;;;;;;;14.10;10.17;;;;;;;9.47;28.19;102101.56;5010843;28;20444;-45
2022/03/12 10:28:34;;;;;;;10.50;9.50;;;;;;;9.40;28.56;102093.38;5011249;28;20468;-45
2022/03/12 10:31:05;;;;;;;11.57;10.33;;;;;;;8.99;28.11;102094.06;5011250;28;20503;-45
2022/03/12 10:33:34;;;;;;;11.40;10.20;;;;;;;9.08;28.18;102098.44;5010697;28;20429;-45
2022/03/12 10:36:13;;;;;;;10.70;9.60;;;;;;;9.18;28.20;102097.34;5014610;28;20531;-46
2022/03/12 10:38:43;;;;;;;12.67;9.57;;;;;;;9.18;29.03;102091.19;5015062;28;20429;-45
2022/03/12 10:41:11;;;;;;;11.57;10.37;;;;;;;9.22;29.00;102100.56;5024337;28;20464;-45
2022/03/12 10:43:46;;;;;;;11.77;10.57;;;;;;;9.02;28.76;102093.75;5026525;28;20442;-46
2022/03/12 10:46:23;;;;;;;10.70;9.60;;;;;;;9.03;29.33;102101.56;5006243;28;20528;-48
2022/03/12 10:48:56;;;;;;;10.37;9.37;;;;;;;9.10;28.73;102091.13;5017763;28;20460;-48
2022/03/12 10:51:33;;;;;;;10.83;9.83;;;;;;;9.21;28.77;102083.75;5008813;28;20448;-45
2022/03/12 10:54:04;;;;;;;10.77;9.77;;;;;;;9.36;29.16;102082.19;5015517;28;20429;-45
2022/03/12 10:56:43;;;;;;;12.73;11.63;;;;;;;9.40;28.58;102096.88;5013576;28;20421;-46
2022/03/12 10:59:13;;;;;;;10.73;9.83;;;;;;;9.51;29.13;102090.44;5019922;28;20451;-44
2022/03/12 11:01:50;;;;;;;11.37;10.13;;;;;;;9.53;28.50;102085.78;5013700;28;20433;-48
2022/03/12 11:04:20;;;;;;;11.90;10.70;;;;;;;9.49;28.27;102081.78;5014250;28;20451;-46
2022/03/12 11:06:49;;;;;;;10.60;9.60;;;;;;;9.67;28.67;102082.56;5011834;28;20800;-45
2022/03/12 11:09:31;;;;;;;12.50;9.97;;;;;;;9.90;28.81;102083.66;5020166;28;20464;-46
2022/03/12 11:12:00;;;;;;;10.00;9.20;;;;;;;9.79;27.64;102075.97;5010994;28;20879;-45
2022/03/12 11:14:30;;;;;;;10.40;9.33;;;;;;;9.83;27.98;102084.44;5011376;28;20451;-46
2022/03/12 11:16:59;;;;;;;10.60;9.57;;;;;;;9.84;28.60;102070.97;5022753;28;20431;-48
2022/03/12 11:19:42;;;;;;;11.40;10.00;;;;;;;9.71;28.76;102070.56;5017503;28;20982;-44
2022/03/12 11:22:13;;;;;;;10.67;9.83;;;;;;;9.58;28.62;102062.19;5019608;28;20564;-44
2022/03/12 11:24:46;;;;;;;10.90;9.90;;;;;;;9.77;28.17;102063.75;5019390;28;20427;-49
2022/03/12 11:27:27;;;;;;;11.63;10.40;;;;;;;9.88;28.34;102068.84;5011333;28;20433;-45
2022/03/12 11:30:02;;;;;;;11.50;9.47;;;;;;;10.01;28.72;102067.38;5020340;28;20468;-45